sensor_id;sensor_type;location;lat;lon;timestamp;pressure;altitude;pressure_sealevel;temperature;humidity
38912;BME280;28444;48.056;14.408;2022-10-16T00:00:53;97693.00;;;12.20;100.00
38912;BME280;28444;48.056;14.408;2022-10-16T00:03:20;97691.53;;;12.19;100.00
38912;BME280;28444;48.056;14.408;2022-10-16T00:05:53;97686.06;;;12.19;100.00
38912;BME280;28444;48.056;14.408;2022-10-16T00:08:20;97687.63;;;12.12;100.00
38912;BME280;28444;48.056;14.408;2022-10-16T00:10:46;97695.69;;;12.10;100.00
38912;BME280;28444;48.056;14.408;2022-10-16T00:13:13;97692.66;;;12.06;100.00
38912;BME280;28444;48.056;14.408;2022-10-16T00:15:39;97687.88;;;12.07;100.00
38912;BME280;28444;48.056;14.408;2022-10-16T00:18:06;97690.63;;;12.07;100.00
38912;BME280;28444;48.056;14.408;2022-10-16T00:20:35;97697.00;;;12.09;100.00
38912;BME280;28444;48.056;14.408;2022-10-16T00:23:04;97698.13;;;12.06;100.00
38912;BME280;28444;48.056;14.408;2022-10-16T00:25:31;97700.16;;;12.06;100.00
38912;BME280;28444;48.056;14.408;2022-10-16T00:28:00;97697.97;;;12.04;100.00
38912;BME280;28444;48.056;14.408;2022-10-16T00:30:27;97694.81;;;12.08;100.00
38912;BME280;28444;48.056;14.408;2022-10-16T00:32:54;97706.34;;;12.06;100.00
38912;BME280;28444;48.056;14.408;2022-10-16T00:35:21;97701.91;;;12.11;100.00
38912;BME280;28444;48.056;14.408;2022-10-16T00:37:48;97707.06;;;12.07;100.00
38912;BME280;28444;48.056;14.408;2022-10-16T00:40:15;97714.28;;;12.02;100.00
38912;BME280;28444;48.056;14.408;2022-10-16T00:42:42;97720.88;;;11.99;100.00
38912;BME280;28444;48.056;14.408;2022-10-16T00:45:09;97726.59;;;11.93;100.00
38912;BME280;28444;48.056;14.408;2022-10-16T00:47:45;97735.09;;;11.88;100.00
38912;BME280;28444;48.056;14.408;2022-10-16T00:50:31;97736.13;;;11.92;100.00
38912;BME280;28444;48.056;14.408;2022-10-16T00:53:00;97740.88;;;11.92;100.00
38912;BME280;28444;48.056;14.408;2022-10-16T00:55:28;97733.69;;;11.96;100.00
38912;BME280;28444;48.056;14.408;2022-10-16T00:57:57;97730.38;;;11.98;100.00
38912;BME280;28444;48.056;14.408;2022-10-16T01:00:26;97727.81;;;12.00;100.00
38912;BME280;28444;48.056;14.408;2022-10-16T01:02:54;97732.16;;;12.03;100.00
38912;BME280;28444;48.056;14.408;2022-10-16T01:05:39;97729.72;;;12.07;100.00
38912;BME280;28444;48.056;14.408;2022-10-16T01:08:18;97725.28;;;12.12;100.00
38912;BME280;28444;48.056;14.408;2022-10-16T01:13:58;97730.31;;;12.06;100.00
38912;BME280;28444;48.056;14.408;2022-10-16T01:16:34;97733.91;;;12.08;100.00
38912;BME280;28444;48.056;14.408;2022-10-16T01:22:16;97742.94;;;12.01;100.00
38912;BME280;28444;48.056;14.408;2022-10-16T01:24:46;97736.59;;;11.98;100.00
38912;BME280;28444;48.056;14.408;2022-10-16T01:27:20;97732.66;;;11.92;100.00
38912;BME280;28444;48.056;14.408;2022-10-16T01:30:13;97732.66;;;11.92;100.00
38912;BME280;28444;48.056;14.408;2022-10-16T01:32:50;97732.66;;;11.92;100.00
38912;BME280;28444;48.056;14.408;2022-10-16T01:35:43;97731.47;;;11.85;100.00
38912;BME280;28444;48.056;14.408;2022-10-16T01:38:21;97732.00;;;11.84;100.00
38912;BME280;28444;48.056;14.408;2022-10-16T01:40:52;97735.88;;;11.80;100.00
38912;BME280;28444;48.056;14.408;2022-10-16T01:43:46;97737.16;;;11.79;100.00
38912;BME280;28444;48.056;14.408;2022-10-16T01:46:17;97736.28;;;11.77;100.00
38912;BME280;28444;48.056;14.408;2022-10-16T01:48:45;97739.75;;;11.77;100.00
38912;BME280;28444;48.056;14.408;2022-10-16T01:51:15;97747.97;;;11.77;100.00
38912;BME280;28444;48.056;14.408;2022-10-16T01:53:47;97746.66;;;11.78;100.00
38912;BME280;28444;48.056;14.408;2022-10-16T01:56:15;97752.00;;;11.76;100.00
38912;BME280;28444;48.056;14.408;2022-10-16T01:58:48;97756.00;;;11.75;100.00
38912;BME280;28444;48.056;14.408;2022-10-16T02:01:19;97756.19;;;11.77;100.00
38912;BME280;28444;48.056;14.408;2022-10-16T02:03:50;97751.66;;;11.72;100.00
38912;BME280;28444;48.056;14.408;2022-10-16T02:06:18;97752.06;;;11.69;100.00
38912;BME280;28444;48.056;14.408;2022-10-16T02:08:46;97753.06;;;11.64;100.00
38912;BME280;28444;48.056;14.408;2022-10-16T02:11:13;97750.72;;;11.60;100.00
38912;BME280;28444;48.056;14.408;2022-10-16T02:13:45;97760.78;;;11.57;100.00
38912;BME280;28444;48.056;14.408;2022-10-16T02:16:14;97751.13;;;11.56;100.00
38912;BME280;28444;48.056;14.408;2022-10-16T02:18:42;97763.50;;;11.57;100.00
38912;BME280;28444;48.056;14.408;2022-10-16T02:21:32;97765.38;;;11.55;100.00
38912;BME280;28444;48.056;14.408;2022-10-16T02:24:28;97773.44;;;11.53;100.00
38912;BME280;28444;48.056;14.408;2022-10-16T02:29:47;97772.72;;;11.52;100.00
38912;BME280;28444;48.056;14.408;2022-10-16T02:32:20;97764.63;;;11.54;100.00
38912;BME280;28444;48.056;14.408;2022-10-16T02:34:49;97763.91;;;11.54;100.00
38912;BME280;28444;48.056;14.408;2022-10-16T02:37:17;97759.25;;;11.47;100.00
38912;BME280;28444;48.056;14.408;2022-10-16T02:39:44;97761.13;;;11.44;100.00
38912;BME280;28444;48.056;14.408;2022-10-16T02:42:14;97762.78;;;11.40;100.00
38912;BME280;28444;48.056;14.408;2022-10-16T02:44:41;97755.06;;;11.46;100.00
38912;BME280;28444;48.056;14.408;2022-10-16T02:47:08;97751.03;;;11.47;100.00
38912;BME280;28444;48.056;14.408;2022-10-16T02:49:34;97752.19;;;11.44;100.00
38912;BME280;28444;48.056;14.408;2022-10-16T02:52:01;97764.56;;;11.45;100.00
38912;BME280;28444;48.056;14.408;2022-10-16T02:54:27;97761.59;;;11.50;100.00
38912;BME280;28444;48.056;14.408;2022-10-16T02:56:54;97767.22;;;11.52;100.00
38912;BME280;28444;48.056;14.408;2022-10-16T02:59:21;97769.56;;;11.56;100.00
38912;BME280;28444;48.056;14.408;2022-10-16T03:01:48;97776.75;;;11.51;100.00
38912;BME280;28444;48.056;14.408;2022-10-16T03:04:14;97784.38;;;11.36;100.00
38912;BME280;28444;48.056;14.408;2022-10-16T03:06:41;97786.94;;;11.33;100.00
38912;BME280;28444;48.056;14.408;2022-10-16T03:09:08;97784.94;;;11.34;100.00
38912;BME280;28444;48.056;14.408;2022-10-16T03:11:34;97794.44;;;11.33;100.00
38912;BME280;28444;48.056;14.408;2022-10-16T03:14:01;97800.31;;;11.29;100.00
38912;BME280;28444;48.056;14.408;2022-10-16T03:16:27;97801.84;;;11.23;100.00
38912;BME280;28444;48.056;14.408;2022-10-16T03:18:54;97801.66;;;11.21;100.00
38912;BME280;28444;48.056;14.408;2022-10-16T03:21:21;97812.84;;;11.15;100.00
38912;BME280;28444;48.056;14.408;2022-10-16T03:23:48;97813.72;;;11.18;100.00
38912;BME280;28444;48.056;14.408;2022-10-16T03:26:14;97807.53;;;11.17;100.00
38912;BME280;28444;48.056;14.408;2022-10-16T03:28:41;97817.56;;;11.15;100.00
38912;BME280;28444;48.056;14.408;2022-10-16T03:31:07;97813.72;;;11.18;100.00
38912;BME280;28444;48.056;14.408;2022-10-16T03:33:34;97823.00;;;11.22;100.00
38912;BME280;28444;48.056;14.408;2022-10-16T03:36:01;97816.78;;;11.22;100.00
38912;BME280;28444;48.056;14.408;2022-10-16T03:38:28;97822.81;;;11.20;100.00
38912;BME280;28444;48.056;14.408;2022-10-16T03:40:54;97829.28;;;11.15;100.00
38912;BME280;28444;48.056;14.408;2022-10-16T03:43:21;97834.75;;;11.15;100.00
38912;BME280;28444;48.056;14.408;2022-10-16T03:45:50;97819.75;;;11.16;100.00
38912;BME280;28444;48.056;14.408;2022-10-16T03:48:20;97819.91;;;11.18;100.00
38912;BME280;28444;48.056;14.408;2022-10-16T03:50:47;97819.91;;;11.18;100.00
38912;BME280;28444;48.056;14.408;2022-10-16T03:53:15;97826.63;;;11.25;100.00
38912;BME280;28444;48.056;14.408;2022-10-16T03:55:42;97820.09;;;11.20;100.00
38912;BME280;28444;48.056;14.408;2022-10-16T03:58:09;97817.03;;;11.16;100.00
38912;BME280;28444;48.056;14.408;2022-10-16T04:00:43;97817.56;;;11.15;100.00
38912;BME280;28444;48.056;14.408;2022-10-16T04:03:11;97820.66;;;11.19;100.00
38912;BME280;28444;48.056;14.408;2022-10-16T04:05:37;97816.06;;;11.21;100.00
38912;BME280;28444;48.056;14.408;2022-10-16T04:08:04;97827.78;;;11.14;100.00
38912;BME280;28444;48.056;14.408;2022-10-16T04:10:31;97830.66;;;10.99;100.00
38912;BME280;28444;48.056;14.408;2022-10-16T04:12:58;97831.44;;;10.92;100.00
38912;BME280;28444;48.056;14.408;2022-10-16T04:15:25;97830.19;;;10.85;100.00
38912;BME280;28444;48.056;14.408;2022-10-16T04:17:52;97831.09;;;10.88;100.00
38912;BME280;28444;48.056;14.408;2022-10-16T04:20:19;97844.59;;;10.85;100.00
38912;BME280;28444;48.056;14.408;2022-10-16T04:22:46;97845.16;;;10.84;100.00
38912;BME280;28444;48.056;14.408;2022-10-16T04:25:12;97840.03;;;10.88;100.00
38912;BME280;28444;48.056;14.408;2022-10-16T04:27:39;97843.38;;;10.79;100.00
38912;BME280;28444;48.056;14.408;2022-10-16T04:30:11;97847.03;;;10.74;100.00
38912;BME280;28444;48.056;14.408;2022-10-16T04:32:38;97846.16;;;10.71;100.00
38912;BME280;28444;48.056;14.408;2022-10-16T04:35:05;97850.88;;;10.71;100.00
38912;BME280;28444;48.056;14.408;2022-10-16T04:37:32;97852.19;;;10.70;100.00
38912;BME280;28444;48.056;14.408;2022-10-16T04:39:58;97846.31;;;10.73;100.00
38912;BME280;28444;48.056;14.408;2022-10-16T04:42:25;97859.47;;;10.75;100.00
38912;BME280;28444;48.056;14.408;2022-10-16T04:44:51;97858.50;;;10.80;100.00
38912;BME280;28444;48.056;14.408;2022-10-16T04:47:18;97851.75;;;10.81;100.00
38912;BME280;28444;48.056;14.408;2022-10-16T04:49:45;97862.91;;;10.75;100.00
38912;BME280;28444;48.056;14.408;2022-10-16T04:52:11;97858.38;;;10.70;100.00
38912;BME280;28444;48.056;14.408;2022-10-16T04:54:38;97857.66;;;10.70;100.00
38912;BME280;28444;48.056;14.408;2022-10-16T04:57:04;97844.88;;;10.72;100.00
38912;BME280;28444;48.056;14.408;2022-10-16T04:59:31;97847.94;;;10.76;100.00
38912;BME280;28444;48.056;14.408;2022-10-16T05:01:58;97844.09;;;10.79;100.00
38912;BME280;28444;48.056;14.408;2022-10-16T05:04:24;97837.28;;;10.88;100.00
38912;BME280;28444;48.056;14.408;2022-10-16T05:06:51;97836.91;;;10.92;100.00
38912;BME280;28444;48.056;14.408;2022-10-16T05:09:18;97830.00;;;10.91;100.00
38912;BME280;28444;48.056;14.408;2022-10-16T05:11:44;97835.28;;;10.89;100.00
38912;BME280;28444;48.056;14.408;2022-10-16T05:14:11;97831.28;;;10.90;100.00
38912;BME280;28444;48.056;14.408;2022-10-16T05:16:38;97839.50;;;10.90;100.00
38912;BME280;28444;48.056;14.408;2022-10-16T05:19:04;97840.69;;;10.71;100.00
38912;BME280;28444;48.056;14.408;2022-10-16T05:21:51;97845.41;;;10.46;100.00
38912;BME280;28444;48.056;14.408;2022-10-16T05:24:18;97853.59;;;10.38;100.00
38912;BME280;28444;48.056;14.408;2022-10-16T05:26:44;97864.16;;;10.42;100.00
38912;BME280;28444;48.056;14.408;2022-10-16T05:29:11;97861.81;;;10.46;100.00
38912;BME280;28444;48.056;14.408;2022-10-16T05:31:38;97856.69;;;10.50;100.00
38912;BME280;28444;48.056;14.408;2022-10-16T05:34:05;97857.78;;;10.47;100.00
38912;BME280;28444;48.056;14.408;2022-10-16T05:36:31;97860.72;;;10.41;100.00
38912;BME280;28444;48.056;14.408;2022-10-16T05:38:58;97868.75;;;10.39;100.00
38912;BME280;28444;48.056;14.408;2022-10-16T05:41:25;97876.22;;;10.39;100.00
38912;BME280;28444;48.056;14.408;2022-10-16T05:43:53;97873.66;;;10.41;100.00
38912;BME280;28444;48.056;14.408;2022-10-16T05:46:19;97878.03;;;10.44;100.00
38912;BME280;28444;48.056;14.408;2022-10-16T05:48:46;97875.66;;;10.40;100.00
38912;BME280;28444;48.056;14.408;2022-10-16T05:51:14;97882.41;;;10.39;100.00
38912;BME280;28444;48.056;14.408;2022-10-16T05:53:41;97881.50;;;10.36;100.00
38912;BME280;28444;48.056;14.408;2022-10-16T05:56:13;97883.91;;;10.32;100.00
38912;BME280;28444;48.056;14.408;2022-10-16T05:58:40;97886.28;;;10.28;100.00
38912;BME280;28444;48.056;14.408;2022-10-16T06:01:11;97897.94;;;10.29;100.00
38912;BME280;28444;48.056;14.408;2022-10-16T06:03:38;97903.78;;;10.25;100.00
38912;BME280;28444;48.056;14.408;2022-10-16T06:06:10;97910.31;;;10.22;100.00
38912;BME280;28444;48.056;14.408;2022-10-16T06:08:37;97910.69;;;10.26;100.00
38912;BME280;28444;48.056;14.408;2022-10-16T06:11:07;97922.34;;;10.19;100.00
38912;BME280;28444;48.056;14.408;2022-10-16T06:13:34;97915.09;;;10.14;100.00
38912;BME280;28444;48.056;14.408;2022-10-16T06:16:01;97922.03;;;10.07;100.00
38912;BME280;28444;48.056;14.408;2022-10-16T06:18:28;97924.19;;;10.09;100.00
38912;BME280;28444;48.056;14.408;2022-10-16T06:20:56;97926.75;;;10.15;100.00
38912;BME280;28444;48.056;14.408;2022-10-16T06:23:23;97936.94;;;10.14;100.00
38912;BME280;28444;48.056;14.408;2022-10-16T06:25:50;97928.75;;;10.14;100.00
38912;BME280;28444;48.056;14.408;2022-10-16T06:28:16;97930.38;;;10.17;100.00
38912;BME280;28444;48.056;14.408;2022-10-16T06:30:43;97927.81;;;10.27;100.00
38912;BME280;28444;48.056;14.408;2022-10-16T06:33:10;97934.19;;;10.29;100.00
38912;BME280;28444;48.056;14.408;2022-10-16T06:35:37;97934.38;;;10.31;100.00
38912;BME280;28444;48.056;14.408;2022-10-16T06:38:04;97936.53;;;10.41;100.00
38912;BME280;28444;48.056;14.408;2022-10-16T06:40:31;97944.91;;;10.43;100.00
38912;BME280;28444;48.056;14.408;2022-10-16T06:42:57;97950.75;;;10.47;100.00
38912;BME280;28444;48.056;14.408;2022-10-16T06:45:24;97952.94;;;10.41;100.00
38912;BME280;28444;48.056;14.408;2022-10-16T06:47:50;97953.50;;;10.39;100.00
38912;BME280;28444;48.056;14.408;2022-10-16T06:50:17;97954.38;;;10.42;100.00
38912;BME280;28444;48.056;14.408;2022-10-16T06:52:44;97974.63;;;10.46;100.00
38912;BME280;28444;48.056;14.408;2022-10-16T06:55:10;97961.69;;;10.47;100.00
38912;BME280;28444;48.056;14.408;2022-10-16T06:57:37;97966.19;;;10.52;100.00
38912;BME280;28444;48.056;14.408;2022-10-16T07:00:04;97972.75;;;10.56;100.00
38912;BME280;28444;48.056;14.408;2022-10-16T07:02:31;97963.06;;;10.63;100.00
38912;BME280;28444;48.056;14.408;2022-10-16T07:04:58;97973.06;;;10.76;100.00
38912;BME280;28444;48.056;14.408;2022-10-16T07:07:25;97972.06;;;10.89;100.00
38912;BME280;28444;48.056;14.408;2022-10-16T07:09:52;97980.47;;;10.91;100.00
38912;BME280;28444;48.056;14.408;2022-10-16T07:12:19;97973.84;;;11.01;100.00
38912;BME280;28444;48.056;14.408;2022-10-16T07:14:46;97972.94;;;10.99;100.00
38912;BME280;28444;48.056;14.408;2022-10-16T07:17:13;97971.66;;;11.00;100.00
38912;BME280;28444;48.056;14.408;2022-10-16T07:19:39;97970.72;;;11.05;100.00
38912;BME280;28444;48.056;14.408;2022-10-16T07:22:06;97969.78;;;11.10;100.00
38912;BME280;28444;48.056;14.408;2022-10-16T07:24:33;97973.75;;;11.17;100.00
38912;BME280;28444;48.056;14.408;2022-10-16T07:26:59;97973.91;;;11.26;100.00
38912;BME280;28444;48.056;14.408;2022-10-16T07:29:26;97981.53;;;11.28;100.00
38912;BME280;28444;48.056;14.408;2022-10-16T07:31:52;97985.78;;;11.21;100.00
38912;BME280;28444;48.056;14.408;2022-10-16T07:34:19;97989.06;;;11.20;100.00
38912;BME280;28444;48.056;14.408;2022-10-16T07:36:49;97985.63;;;11.19;100.00
38912;BME280;28444;48.056;14.408;2022-10-16T07:39:16;97986.50;;;11.22;100.00
38912;BME280;28444;48.056;14.408;2022-10-16T07:41:43;97977.91;;;11.25;100.00
38912;BME280;28444;48.056;14.408;2022-10-16T07:44:10;97980.81;;;11.27;100.00
38912;BME280;28444;48.056;14.408;2022-10-16T07:46:36;97981.34;;;11.33;100.00
38912;BME280;28444;48.056;14.408;2022-10-16T07:49:03;97988.81;;;11.33;100.00
38912;BME280;28444;48.056;14.408;2022-10-16T07:51:30;97982.78;;;11.35;100.00
38912;BME280;28444;48.056;14.408;2022-10-16T07:53:57;97975.63;;;11.39;100.00
38912;BME280;28444;48.056;14.408;2022-10-16T07:56:23;97973.41;;;11.45;100.00
38912;BME280;28444;48.056;14.408;2022-10-16T07:58:51;97966.56;;;11.54;100.00
38912;BME280;28444;48.056;14.408;2022-10-16T08:01:18;97965.78;;;11.61;100.00
38912;BME280;28444;48.056;14.408;2022-10-16T08:03:47;97976.28;;;11.72;100.00
38912;BME280;28444;48.056;14.408;2022-10-16T08:06:15;97972.63;;;11.77;100.00
38912;BME280;28444;48.056;14.408;2022-10-16T08:08:42;97980.84;;;11.77;100.00
38912;BME280;28444;48.056;14.408;2022-10-16T08:11:08;97969.31;;;11.79;100.00
38912;BME280;28444;48.056;14.408;2022-10-16T08:13:35;97972.94;;;11.81;100.00
38912;BME280;28444;48.056;14.408;2022-10-16T08:16:03;97974.94;;;11.89;100.00
38912;BME280;28444;48.056;14.408;2022-10-16T08:18:35;97980.25;;;12.04;100.00
38912;BME280;28444;48.056;14.408;2022-10-16T08:21:03;97980.78;;;12.10;100.00
38912;BME280;28444;48.056;14.408;2022-10-16T08:23:30;97990.44;;;12.11;100.00
38912;BME280;28444;48.056;14.408;2022-10-16T08:26:03;97982.78;;;12.27;100.00
38912;BME280;28444;48.056;14.408;2022-10-16T08:28:30;97984.25;;;12.28;100.00
38912;BME280;28444;48.056;14.408;2022-10-16T08:31:11;97989.47;;;12.34;100.00
38912;BME280;28444;48.056;14.408;2022-10-16T08:33:38;97987.22;;;12.40;100.00
38912;BME280;28444;48.056;14.408;2022-10-16T08:36:07;97991.34;;;12.48;100.00
38912;BME280;28444;48.056;14.408;2022-10-16T08:38:35;97992.00;;;12.57;100.00
38912;BME280;28444;48.056;14.408;2022-10-16T08:41:52;98006.19;;;12.63;100.00
38912;BME280;28444;48.056;14.408;2022-10-16T08:47:59;97998.97;;;12.85;100.00
38912;BME280;28444;48.056;14.408;2022-10-16T08:50:37;97996.53;;;12.89;100.00
38912;BME280;28444;48.056;14.408;2022-10-16T08:53:05;97991.41;;;12.93;100.00
38912;BME280;28444;48.056;14.408;2022-10-16T08:55:38;97996.94;;;13.02;100.00
38912;BME280;28444;48.056;14.408;2022-10-16T08:58:15;97994.56;;;13.16;100.00
38912;BME280;28444;48.056;14.408;2022-10-16T09:00:46;98002.56;;;13.22;100.00
38912;BME280;28444;48.056;14.408;2022-10-16T09:04:46;98006.66;;;13.31;100.00
38912;BME280;28444;48.056;14.408;2022-10-16T09:07:04;98004.84;;;13.43;100.00
38912;BME280;28444;48.056;14.408;2022-10-16T09:10:28;98004.00;;;13.50;100.00
38912;BME280;28444;48.056;14.408;2022-10-16T09:12:58;98005.19;;;13.57;100.00
38912;BME280;28444;48.056;14.408;2022-10-16T09:19:18;98006.56;;;13.75;100.00
38912;BME280;28444;48.056;14.408;2022-10-16T09:21:47;98013.69;;;13.88;100.00
38912;BME280;28444;48.056;14.408;2022-10-16T09:24:16;98015.44;;;13.93;100.00
38912;BME280;28444;48.056;14.408;2022-10-16T09:26:46;98011.53;;;13.96;100.00
38912;BME280;28444;48.056;14.408;2022-10-16T09:29:18;98014.28;;;13.96;100.00
38912;BME280;28444;48.056;14.408;2022-10-16T09:31:50;98017.34;;;14.00;100.00
38912;BME280;28444;48.056;14.408;2022-10-16T09:34:27;98009.97;;;14.12;100.00
38912;BME280;28444;48.056;14.408;2022-10-16T09:36:57;98011.44;;;14.13;100.00
38912;BME280;28444;48.056;14.408;2022-10-16T09:39:25;98003.63;;;14.19;100.00
38912;BME280;28444;48.056;14.408;2022-10-16T09:41:52;98003.50;;;14.27;100.00
38912;BME280;28444;48.056;14.408;2022-10-16T09:44:29;98004.53;;;14.32;100.00
38912;BME280;28444;48.056;14.408;2022-10-16T09:49:29;98012.81;;;14.51;100.00
38912;BME280;28444;48.056;14.408;2022-10-16T09:52:11;98014.69;;;14.58;100.00
38912;BME280;28444;48.056;14.408;2022-10-16T09:54:52;98022.97;;;14.68;100.00
38912;BME280;28444;48.056;14.408;2022-10-16T09:57:20;98018.47;;;14.73;100.00
38912;BME280;28444;48.056;14.408;2022-10-16T09:59:57;98014.13;;;14.79;100.00
38912;BME280;28444;48.056;14.408;2022-10-16T10:02:37;98018.75;;;14.77;100.00
38912;BME280;28444;48.056;14.408;2022-10-16T10:05:06;98017.59;;;14.80;100.00
38912;BME280;28444;48.056;14.408;2022-10-16T10:07:43;98023.53;;;14.86;100.00
38912;BME280;28444;48.056;14.408;2022-10-16T10:10:24;98009.75;;;14.96;100.00
38912;BME280;28444;48.056;14.408;2022-10-16T10:12:53;98014.97;;;15.01;100.00
38912;BME280;28444;48.056;14.408;2022-10-16T10:15:22;98015.53;;;15.09;100.00
38912;BME280;28444;48.056;14.408;2022-10-16T10:17:56;98028.59;;;15.09;100.00
38912;BME280;28444;48.056;14.408;2022-10-16T10:20:30;98026.25;;;15.15;100.00
38912;BME280;28444;48.056;14.408;2022-10-16T10:22:59;98017.56;;;15.19;100.00
38912;BME280;28444;48.056;14.408;2022-10-16T10:25:48;98029.84;;;15.27;100.00
38912;BME280;28444;48.056;14.408;2022-10-16T10:31:51;98027.03;;;15.47;100.00
38912;BME280;28444;48.056;14.408;2022-10-16T10:40:54;98007.28;;;15.60;100.00
38912;BME280;28444;48.056;14.408;2022-10-16T10:46:57;98003.91;;;15.71;100.00
38912;BME280;28444;48.056;14.408;2022-10-16T10:50:12;98006.94;;;15.75;100.00
38912;BME280;28444;48.056;14.408;2022-10-16T10:52:59;98001.53;;;15.87;100.00
38912;BME280;28444;48.056;14.408;2022-10-16T11:02:04;97996.03;;;16.08;100.00
38912;BME280;28444;48.056;14.408;2022-10-16T11:07:36;97988.09;;;16.24;100.00
38912;BME280;28444;48.056;14.408;2022-10-16T11:10:27;97989.22;;;16.31;100.00
38912;BME280;28444;48.056;14.408;2022-10-16T11:13:01;97987.28;;;16.33;100.00
38912;BME280;28444;48.056;14.408;2022-10-16T11:15:37;97982.78;;;16.38;100.00
38912;BME280;28444;48.056;14.408;2022-10-16T11:18:08;97983.88;;;16.45;100.00
38912;BME280;28444;48.056;14.408;2022-10-16T11:20:52;97978.28;;;16.54;100.00
38912;BME280;28444;48.056;14.408;2022-10-16T11:24:35;97974.50;;;16.71;100.00
38912;BME280;28444;48.056;14.408;2022-10-16T11:26:35;97971.03;;;16.71;100.00
38912;BME280;28444;48.056;14.408;2022-10-16T11:29:03;97976.41;;;16.69;100.00
38912;BME280;28444;48.056;14.408;2022-10-16T11:31:46;97975.81;;;16.70;100.00
38912;BME280;28444;48.056;14.408;2022-10-16T11:34:50;97980.47;;;16.89;100.00
38912;BME280;28444;48.056;14.408;2022-10-16T11:37:24;97981.69;;;16.98;100.00
38912;BME280;28444;48.056;14.408;2022-10-16T11:40:21;97976.78;;;16.96;100.00
38912;BME280;28444;48.056;14.408;2022-10-16T11:42:49;97974.75;;;17.08;100.00
38912;BME280;28444;48.056;14.408;2022-10-16T11:45:29;97975.00;;;17.24;100.00
38912;BME280;28444;48.056;14.408;2022-10-16T11:48:05;97976.97;;;17.33;100.00
38912;BME280;28444;48.056;14.408;2022-10-16T11:50:53;97978.53;;;17.37;98.78
38912;BME280;28444;48.056;14.408;2022-10-16T11:53:51;97981.53;;;17.41;95.00
38912;BME280;28444;48.056;14.408;2022-10-16T11:56:21;97973.00;;;17.48;95.64
38912;BME280;28444;48.056;14.408;2022-10-16T11:59:02;97971.91;;;17.53;95.74
38912;BME280;28444;48.056;14.408;2022-10-16T12:01:44;97977.34;;;17.51;97.73
38912;BME280;28444;48.056;14.408;2022-10-16T12:04:24;97967.47;;;17.48;98.03
38912;BME280;28444;48.056;14.408;2022-10-16T12:07:07;97974.81;;;17.44;98.88
38912;BME280;28444;48.056;14.408;2022-10-16T12:09:40;97970.47;;;17.41;98.83
38912;BME280;28444;48.056;14.408;2022-10-16T12:12:28;97972.28;;;17.36;99.02
38912;BME280;28444;48.056;14.408;2022-10-16T12:15:26;97968.28;;;17.27;98.66
38912;BME280;28444;48.056;14.408;2022-10-16T12:18:23;97972.25;;;17.13;100.00
38912;BME280;28444;48.056;14.408;2022-10-16T12:20:55;97969.56;;;17.03;100.00
38912;BME280;28444;48.056;14.408;2022-10-16T12:23:25;97969.78;;;16.95;100.00
38912;BME280;28444;48.056;14.408;2022-10-16T12:25:57;97962.59;;;16.90;100.00
38912;BME280;28444;48.056;14.408;2022-10-16T12:28:29;97961.66;;;16.97;100.00
38912;BME280;28444;48.056;14.408;2022-10-16T12:31:08;97978.72;;;17.05;100.00
38912;BME280;28444;48.056;14.408;2022-10-16T12:33:56;97973.81;;;17.16;97.60
38912;BME280;28444;48.056;14.408;2022-10-16T12:36:30;97975.16;;;17.26;94.98
38912;BME280;28444;48.056;14.408;2022-10-16T12:38:58;97970.34;;;17.27;97.16
38912;BME280;28444;48.056;14.408;2022-10-16T12:41:35;97969.00;;;17.28;97.40
38912;BME280;28444;48.056;14.408;2022-10-16T12:44:04;97968.66;;;17.33;98.35
38912;BME280;28444;48.056;14.408;2022-10-16T12:46:39;97977.69;;;17.34;97.03
38912;BME280;28444;48.056;14.408;2022-10-16T12:49:35;97965.06;;;17.43;97.39
38912;BME280;28444;48.056;14.408;2022-10-16T12:52:03;97972.53;;;17.64;97.80
38912;BME280;28444;48.056;14.408;2022-10-16T12:54:38;97974.44;;;17.73;97.98
38912;BME280;28444;48.056;14.408;2022-10-16T13:00:22;97973.84;;;17.74;98.56
38912;BME280;28444;48.056;14.408;2022-10-16T13:06:35;97974.00;;;17.76;96.69
38912;BME280;28444;48.056;14.408;2022-10-16T13:09:40;97970.63;;;17.78;96.77
38912;BME280;28444;48.056;14.408;2022-10-16T13:22:31;97978.53;;;17.72;98.49
38912;BME280;28444;48.056;14.408;2022-10-16T13:28:28;97983.81;;;17.68;100.00
38912;BME280;28444;48.056;14.408;2022-10-16T13:30:58;97986.25;;;17.62;99.92
38912;BME280;28444;48.056;14.408;2022-10-16T13:33:35;97985.03;;;17.65;99.45
38912;BME280;28444;48.056;14.408;2022-10-16T13:36:04;97981.66;;;17.66;99.94
38912;BME280;28444;48.056;14.408;2022-10-16T13:38:32;97989.81;;;17.64;100.00
38912;BME280;28444;48.056;14.408;2022-10-16T13:41:05;97987.44;;;17.59;98.76
38912;BME280;28444;48.056;14.408;2022-10-16T13:43:39;97988.28;;;17.61;100.00
38912;BME280;28444;48.056;14.408;2022-10-16T13:46:20;97987.69;;;17.63;100.00
38912;BME280;28444;48.056;14.408;2022-10-16T13:49:02;97991.78;;;17.62;100.00
38912;BME280;28444;48.056;14.408;2022-10-16T13:51:30;97983.09;;;17.55;100.00
38912;BME280;28444;48.056;14.408;2022-10-16T13:53:58;97995.59;;;17.56;100.00
38912;BME280;28444;48.056;14.408;2022-10-16T13:56:27;98000.31;;;17.54;100.00
38912;BME280;28444;48.056;14.408;2022-10-16T13:59:02;98001.38;;;17.61;100.00
38912;BME280;28444;48.056;14.408;2022-10-16T14:01:31;97993.22;;;17.63;100.00
38912;BME280;28444;48.056;14.408;2022-10-16T14:04:08;97993.81;;;17.61;100.00
38912;BME280;28444;48.056;14.408;2022-10-16T14:06:39;97999.22;;;17.59;100.00